Yuuseimaru — JD3934 — position and weather

sailwx.info

Track history (hours):
 
Tides and Currents Weather Stations Pressure Air Temp Water Temp Dewpoint Dewpoint Depression Visibility Wind Speed Wind Dir Waves Ship Positions

Yuuseimaru

Last reported at 2017-Sep-24 21:25 UTC. Time now 2017-Oct-23 04:38 UTC.
Position N 35°04' E 138°47'.
Warning: this ship's position is 28 days out of date.

Length 74 m; draft 4.8 m.

Type: Cargo ship. MMSI: 431006982.

Date/timePositionNaut miles runAvg speedWind from/ knotsBaromVisibWave heightAir tempDewpointWater temp
2017-Sep-24 21:25N 35°04' E 138°47'31 2.7
2017-Sep-24 10:10N 34°57' E 139°24'212.3
2017-Sep-24 09:59N 34°58' E 139°26'611.8
2017-Sep-24 09:30N 35°02' E 139°31'611.9
2017-Sep-24 09:00N 35°05' E 139°37'612.8
2017-Sep-24 08:30N 35°09' E 139°44'612.7
2017-Sep-24 08:00N 35°15' E 139°46'612.4
2017-Sep-24 07:30N 35°20' E 139°42'612.4
2017-Sep-24 07:00N 35°26' E 139°43'0 0.3
2017-Sep-24 06:29N 35°27' E 139°43'0 0.0
2017-Sep-24 05:59N 35°27' E 139°43'0 0.0
2017-Sep-24 05:29N 35°27' E 139°43'0 0.0
2017-Sep-24 04:59N 35°27' E 139°43'0 0.0
2017-Sep-24 04:26N 35°27' E 139°43'0 0.1
2017-Sep-24 03:59N 35°27' E 139°43'0 0.1
2017-Sep-24 03:30N 35°27' E 139°43'3 6.0
2017-Sep-24 02:59N 35°30' E 139°43'0 0.0
2017-Sep-24 02:29N 35°30' E 139°43'0 0.0
2017-Sep-24 01:56N 35°30' E 139°43'0 0.0
2017-Sep-24 01:29N 35°30' E 139°43'0 0.0
2017-Sep-24 00:59N 35°30' E 139°43'0 0.0
2017-Sep-24 00:29N 35°30' E 139°43'0 0.0
2017-Sep-23 23:59N 35°30' E 139°43'0 0.0
2017-Sep-23 23:29N 35°30' E 139°43'0 0.0
2017-Sep-23 22:59N 35°30' E 139°43'0 0.1
2017-Sep-23 22:30N 35°30' E 139°43'2 3.4
2017-Sep-23 22:01N 35°28' E 139°42'4 8.1
2017-Sep-23 21:30N 35°26' E 139°46'4 8.0
2017-Sep-23 21:01N 35°22' E 139°45'611.3
2017-Sep-23 20:30N 35°16' E 139°46'612.5
2017-Sep-23 20:00N 35°10' E 139°46'  
2017-Sep-15 10:29N 34°58' E 139°27'510.4
2017-Sep-15 10:00N 35°01' E 139°32'612.3
2017-Sep-15 09:30N 35°05' E 139°38'713.3
2017-Sep-15 09:00N 35°10' E 139°44'612.4
2017-Sep-15 08:30N 35°16' E 139°46'612.9
2017-Sep-15 08:00N 35°21' E 139°42'612.0
2017-Sep-15 07:30N 35°26' E 139°46'612.9
2017-Sep-15 07:00N 35°30' E 139°53'712.7
2017-Sep-15 06:27N 35°33' E 140°01'  
Track history (hours):
 
Tides and Currents Weather Stations Pressure Air Temp Water Temp Dewpoint Dewpoint Depression Visibility Wind Speed Wind Dir Waves Ship Positions

Yuuseimaru

Last reported at 2017-Sep-24 21:25 UTC. Time now 2017-Oct-23 04:38 UTC.
Position N 35°04' E 138°47'.
Warning: this ship's position is 28 days out of date.

Length 74 m; draft 4.8 m.

Type: Cargo ship. MMSI: 431006982.

Date/timePositionNaut miles runAvg speedWind from/ knotsBaromVisibWave heightAir tempDewpointWater temp
2017-Sep-24 21:25N 35°04' E 138°47'31 2.7
2017-Sep-24 10:10N 34°57' E 139°24'212.3
2017-Sep-24 09:59N 34°58' E 139°26'611.8
2017-Sep-24 09:30N 35°02' E 139°31'611.9
2017-Sep-24 09:00N 35°05' E 139°37'612.8
2017-Sep-24 08:30N 35°09' E 139°44'612.7
2017-Sep-24 08:00N 35°15' E 139°46'612.4
2017-Sep-24 07:30N 35°20' E 139°42'612.4
2017-Sep-24 07:00N 35°26' E 139°43'0 0.3
2017-Sep-24 06:29N 35°27' E 139°43'0 0.0
2017-Sep-24 05:59N 35°27' E 139°43'0 0.0
2017-Sep-24 05:29N 35°27' E 139°43'0 0.0
2017-Sep-24 04:59N 35°27' E 139°43'0 0.0
2017-Sep-24 04:26N 35°27' E 139°43'0 0.1
2017-Sep-24 03:59N 35°27' E 139°43'0 0.1
2017-Sep-24 03:30N 35°27' E 139°43'3 6.0
2017-Sep-24 02:59N 35°30' E 139°43'0 0.0
2017-Sep-24 02:29N 35°30' E 139°43'0 0.0
2017-Sep-24 01:56N 35°30' E 139°43'0 0.0
2017-Sep-24 01:29N 35°30' E 139°43'0 0.0
2017-Sep-24 00:59N 35°30' E 139°43'0 0.0
2017-Sep-24 00:29N 35°30' E 139°43'0 0.0
2017-Sep-23 23:59N 35°30' E 139°43'0 0.0
2017-Sep-23 23:29N 35°30' E 139°43'0 0.0
2017-Sep-23 22:59N 35°30' E 139°43'0 0.1
2017-Sep-23 22:30N 35°30' E 139°43'2 3.4
2017-Sep-23 22:01N 35°28' E 139°42'4 8.1
2017-Sep-23 21:30N 35°26' E 139°46'4 8.0
2017-Sep-23 21:01N 35°22' E 139°45'611.3
2017-Sep-23 20:30N 35°16' E 139°46'612.5
2017-Sep-23 20:00N 35°10' E 139°46'  
2017-Sep-15 10:29N 34°58' E 139°27'510.4
2017-Sep-15 10:00N 35°01' E 139°32'612.3
2017-Sep-15 09:30N 35°05' E 139°38'713.3
2017-Sep-15 09:00N 35°10' E 139°44'612.4
2017-Sep-15 08:30N 35°16' E 139°46'612.9
2017-Sep-15 08:00N 35°21' E 139°42'612.0
2017-Sep-15 07:30N 35°26' E 139°46'612.9
2017-Sep-15 07:00N 35°30' E 139°53'712.7
2017-Sep-15 06:27N 35°33' E 140°01'  

Dump ship's entire track history